createdAt,value
2022-09-22T00:01:20.303Z,87.69
2022-09-22T00:03:52.834Z,87.24
2022-09-22T00:06:24.840Z,87.21
2022-09-22T00:08:55.236Z,87.50
2022-09-22T00:11:29.170Z,87.78
2022-09-22T00:14:08.189Z,87.59
2022-09-22T00:16:46.807Z,87.68
2022-09-22T00:19:22.475Z,87.80
2022-09-22T00:21:49.281Z,88.30
2022-09-22T00:24:17.019Z,87.74
2022-09-22T00:26:44.260Z,87.85
2022-09-22T00:29:11.397Z,87.70
2022-09-22T00:31:40.079Z,87.84
2022-09-22T00:34:08.363Z,88.19
2022-09-22T00:36:35.595Z,88.02
2022-09-22T00:39:02.127Z,87.62
2022-09-22T00:41:38.002Z,87.56
2022-09-22T00:44:26.294Z,87.78
2022-09-22T00:46:59.096Z,87.65
2022-09-22T00:49:37.223Z,87.82
2022-09-22T00:52:04.674Z,87.99
2022-09-22T00:54:31.925Z,87.82
2022-09-22T00:57:07.403Z,87.68
2022-09-22T00:59:34.014Z,88.08
2022-09-22T01:02:00.518Z,87.76
2022-09-22T01:04:28.488Z,87.99
2022-09-22T01:06:58.195Z,87.61
2022-09-22T01:09:24.828Z,87.79
2022-09-22T01:11:51.379Z,88.03
2022-09-22T01:14:35.457Z,88.13
2022-09-22T01:17:17.756Z,88.09
2022-09-22T01:19:54.439Z,88.10
2022-09-22T01:22:47.466Z,87.91
2022-09-22T01:25:32.821Z,87.91
2022-09-22T01:28:42.803Z,87.79
2022-09-22T01:31:17.282Z,88.10
2022-09-22T01:33:55.256Z,88.12
2022-09-22T01:36:33.016Z,87.98
2022-09-22T01:39:12.342Z,88.35
2022-09-22T01:41:44.515Z,88.61
2022-09-22T01:44:17.544Z,88.25
2022-09-22T01:47:10.543Z,88.25
2022-09-22T01:49:40.731Z,88.44
2022-09-22T01:52:13.209Z,88.34
2022-09-22T01:54:53.936Z,88.65
2022-09-22T01:57:47.596Z,88.77
2022-09-22T02:00:14.997Z,88.71
2022-09-22T02:02:59.986Z,88.57
2022-09-22T02:05:32.713Z,88.82
2022-09-22T02:08:03.238Z,88.83
2022-09-22T02:10:36.946Z,88.75
2022-09-22T02:13:03.579Z,89.02
2022-09-22T02:15:48.775Z,88.96
2022-09-22T02:18:21.707Z,88.94
2022-09-22T02:20:50.524Z,88.96
2022-09-22T02:23:17.495Z,88.85
2022-09-22T02:25:45.295Z,88.90
2022-09-22T02:28:17.598Z,88.94
2022-09-22T02:31:17.506Z,88.97
2022-09-22T02:33:39.880Z,89.10
2022-09-22T02:36:14.162Z,89.01
2022-09-22T02:38:59.166Z,89.07
2022-09-22T02:41:37.746Z,88.75
2022-09-22T02:44:23.736Z,89.15
2022-09-22T02:46:58.053Z,89.05
2022-09-22T02:49:26.426Z,88.97
2022-09-22T02:51:53.887Z,88.99
2022-09-22T02:54:23.437Z,89.17
2022-09-22T02:56:49.947Z,89.12
2022-09-22T02:59:16.460Z,89.25
2022-09-22T03:01:42.993Z,89.42
2022-09-22T03:04:09.452Z,89.29
2022-09-22T03:06:36.703Z,89.35
2022-09-22T03:09:03.312Z,89.33
2022-09-22T03:11:30.470Z,89.50
2022-09-22T03:13:57.011Z,89.40
2022-09-22T03:16:23.538Z,89.39
2022-09-22T03:18:49.979Z,89.57
2022-09-22T03:21:16.364Z,89.78
2022-09-22T03:23:42.764Z,89.78
2022-09-22T03:26:09.224Z,89.45
2022-09-22T03:28:35.637Z,89.43
2022-09-22T03:31:02.150Z,89.58
2022-09-22T03:33:28.799Z,89.71
2022-09-22T03:35:55.222Z,89.74
2022-09-22T03:38:21.687Z,89.65
2022-09-22T03:40:52.631Z,89.41
2022-09-22T03:43:19.851Z,89.42
2022-09-22T03:45:47.065Z,89.58
2022-09-22T03:48:13.561Z,89.58
2022-09-22T03:50:39.981Z,89.43
2022-09-22T03:53:06.415Z,89.57
2022-09-22T03:55:32.927Z,89.90
2022-09-22T03:57:59.673Z,89.42
2022-09-22T04:00:28.319Z,89.67
2022-09-22T04:02:54.761Z,89.61
2022-09-22T04:05:21.162Z,89.80
2022-09-22T04:07:47.691Z,89.60
2022-09-22T04:10:14.188Z,89.51
2022-09-22T04:12:40.603Z,89.38
2022-09-22T04:15:07.526Z,89.19
2022-09-22T04:17:33.925Z,89.48
2022-09-22T04:20:00.450Z,89.76
2022-09-22T04:22:26.910Z,89.49
2022-09-22T04:24:54.177Z,89.69
2022-09-22T04:27:21.323Z,89.95
2022-09-22T04:29:49.348Z,89.68
2022-09-22T04:32:17.177Z,89.59
2022-09-22T04:34:43.909Z,89.50
2022-09-22T04:37:11.004Z,89.82
2022-09-22T04:39:37.548Z,90.08
2022-09-22T04:42:04.382Z,90.05
2022-09-22T04:44:34.701Z,89.94
2022-09-22T04:47:01.828Z,90.02
2022-09-22T04:49:28.223Z,90.07
2022-09-22T04:51:54.688Z,89.82
2022-09-22T04:54:21.110Z,89.81
2022-09-22T04:56:47.550Z,90.28
2022-09-22T04:59:13.982Z,90.30
2022-09-22T05:01:40.487Z,90.23
2022-09-22T05:04:06.901Z,90.14
2022-09-22T05:06:33.346Z,90.31
2022-09-22T05:08:59.795Z,90.62
2022-09-22T05:11:26.288Z,90.42
2022-09-22T05:13:52.694Z,90.56
2022-09-22T05:16:19.450Z,90.50
2022-09-22T05:18:46.437Z,90.71
2022-09-22T05:21:12.854Z,90.24
2022-09-22T05:23:39.743Z,90.63
2022-09-22T05:26:06.689Z,90.06
2022-09-22T05:28:33.098Z,90.75
2022-09-22T05:30:59.576Z,90.59
2022-09-22T05:33:25.979Z,91.05
2022-09-22T05:35:52.407Z,90.87
2022-09-22T05:38:19.491Z,90.83
2022-09-22T05:40:47.174Z,90.65
2022-09-22T05:43:13.960Z,90.68
2022-09-22T05:45:40.438Z,90.67
2022-09-22T05:48:06.902Z,91.00
2022-09-22T05:50:33.351Z,91.01
2022-09-22T05:53:10.282Z,90.98
2022-09-22T05:55:38.603Z,91.21
2022-09-22T05:58:05.290Z,91.17
2022-09-22T06:00:32.542Z,90.87
2022-09-22T06:02:59.024Z,91.22
2022-09-22T06:05:25.575Z,91.03
2022-09-22T06:08:02.755Z,91.28
2022-09-22T06:10:31.819Z,91.25
2022-09-22T06:13:03.553Z,91.58
2022-09-22T06:15:31.504Z,91.74
2022-09-22T06:17:57.934Z,91.45
2022-09-22T06:20:24.470Z,91.64
2022-09-22T06:22:50.942Z,91.92
2022-09-22T06:25:17.396Z,91.68
2022-09-22T06:27:44.007Z,92.01
2022-09-22T06:30:11.665Z,91.42
2022-09-22T06:32:43.760Z,90.05
2022-09-22T06:35:10.253Z,90.06
2022-09-22T06:37:38.457Z,88.44
2022-09-22T06:40:08.198Z,85.53
2022-09-22T06:42:35.712Z,84.94
2022-09-22T06:45:04.707Z,85.62
2022-09-22T06:47:32.863Z,85.76
2022-09-22T06:50:01.267Z,86.59
2022-09-22T06:52:28.326Z,87.13
2022-09-22T06:54:58.426Z,87.24
2022-09-22T06:57:25.785Z,87.28
2022-09-22T06:59:52.184Z,87.03
2022-09-22T07:02:18.600Z,87.77
2022-09-22T07:04:45.839Z,87.76
2022-09-22T07:07:12.230Z,87.83
2022-09-22T07:09:38.639Z,88.26
2022-09-22T07:12:06.098Z,88.25
2022-09-22T07:14:32.589Z,88.21
2022-09-22T07:16:58.959Z,87.93
2022-09-22T07:19:25.331Z,87.92
2022-09-22T07:21:51.729Z,87.83
2022-09-22T07:24:18.161Z,87.68
2022-09-22T07:26:45.715Z,87.61
2022-09-22T07:29:13.717Z,87.15
2022-09-22T07:31:41.762Z,86.75
2022-09-22T07:34:08.573Z,86.84
2022-09-22T07:36:36.904Z,86.35
2022-09-22T07:39:10.149Z,86.79
2022-09-22T07:41:41.691Z,85.56
2022-09-22T07:44:30.612Z,84.83
2022-09-22T07:46:57.196Z,84.64
2022-09-22T07:49:23.755Z,84.02
2022-09-22T07:51:51.218Z,82.98
2022-09-22T07:54:17.663Z,84.11
2022-09-22T07:56:45.175Z,82.54
2022-09-22T07:59:16.632Z,83.02
2022-09-22T08:01:47.576Z,82.98
2022-09-22T08:04:16.484Z,82.52
2022-09-22T08:06:44.431Z,81.32
2022-09-22T08:09:11.665Z,81.38
2022-09-22T08:11:38.835Z,82.25
2022-09-22T08:14:07.914Z,81.07
2022-09-22T08:16:36.931Z,80.32
2022-09-22T08:19:10.459Z,80.42
2022-09-22T08:21:46.431Z,79.58
2022-09-22T08:24:16.088Z,79.95
2022-09-22T08:26:48.121Z,79.82
2022-09-22T08:29:14.931Z,78.84
2022-09-22T08:31:42.005Z,77.64
2022-09-22T08:34:09.135Z,77.96
2022-09-22T08:36:37.148Z,76.67
2022-09-22T08:39:04.906Z,77.17
2022-09-22T08:41:31.475Z,76.53
2022-09-22T08:44:03.052Z,74.59
2022-09-22T08:46:39.861Z,74.94
2022-09-22T08:49:32.283Z,73.18
2022-09-22T08:52:23.383Z,73.54
2022-09-22T08:54:50.094Z,72.53
2022-09-22T08:57:45.946Z,73.57
2022-09-22T09:00:17.946Z,73.21
2022-09-22T09:03:09.535Z,71.80
2022-09-22T09:05:46.031Z,71.04
2022-09-22T09:08:27.419Z,68.68
2022-09-22T09:11:26.300Z,69.15
2022-09-22T09:14:11.828Z,68.73
2022-09-22T09:16:46.828Z,68.26
2022-09-22T09:19:18.242Z,66.96
2022-09-22T09:21:51.633Z,67.79
2022-09-22T09:27:24.584Z,66.42
2022-09-22T09:30:04.735Z,64.36
2022-09-22T09:32:43.251Z,64.32
2022-09-22T09:35:15.027Z,64.23
2022-09-22T09:37:44.710Z,63.72
2022-09-22T09:40:16.133Z,63.52
2022-09-22T09:42:43.095Z,65.22
2022-09-22T09:45:14.457Z,62.09
2022-09-22T09:48:07.004Z,62.82
2022-09-22T09:50:35.973Z,61.26
2022-09-22T09:53:02.381Z,61.50
2022-09-22T09:55:29.351Z,58.40
2022-09-22T09:58:03.401Z,58.62
2022-09-22T10:00:32.878Z,57.04
2022-09-22T10:03:02.267Z,55.66
2022-09-22T10:05:29.953Z,56.10
2022-09-22T10:08:00.287Z,56.87
2022-09-22T10:10:29.665Z,55.43
2022-09-22T10:13:30.960Z,57.53
2022-09-22T10:16:30.660Z,56.73
2022-09-22T10:19:00.122Z,55.09
2022-09-22T10:21:28.013Z,53.53
2022-09-22T10:23:59.306Z,53.42
2022-09-22T10:26:27.064Z,53.02
2022-09-22T10:29:10.541Z,52.50
2022-09-22T10:31:38.494Z,52.98
2022-09-22T10:34:20.102Z,52.60
2022-09-22T10:36:47.372Z,50.77
2022-09-22T10:39:18.543Z,52.29
2022-09-22T10:41:48.507Z,51.35
2022-09-22T10:44:38.137Z,50.86
2022-09-22T10:47:51.112Z,52.93
2022-09-22T10:50:44.366Z,52.40
2022-09-22T10:53:52.533Z,52.37
2022-09-22T10:56:38.743Z,51.82
2022-09-22T10:59:28.651Z,50.89
2022-09-22T11:02:34.830Z,52.45
2022-09-22T11:05:44.515Z,51.58
2022-09-22T11:08:32.722Z,50.27
2022-09-22T11:11:39.496Z,52.19
2022-09-22T11:14:20.536Z,50.82
2022-09-22T11:17:05.127Z,50.92
2022-09-22T11:19:42.113Z,50.08
2022-09-22T11:22:37.178Z,52.21
2022-09-22T11:25:18.506Z,51.05
2022-09-22T11:27:55.304Z,51.47
2022-09-22T11:30:22.995Z,52.10
2022-09-22T11:33:03.507Z,50.14
2022-09-22T11:35:49.745Z,51.83
2022-09-22T11:38:39.943Z,50.86
2022-09-22T11:41:26.854Z,49.10
2022-09-22T11:44:19.121Z,51.02
2022-09-22T11:46:48.575Z,49.24
2022-09-22T11:49:49.146Z,49.49
2022-09-22T11:52:50.517Z,50.71
2022-09-22T11:55:56.597Z,50.83
2022-09-22T11:58:28.385Z,50.76
2022-09-22T12:01:00.474Z,49.64
2022-09-22T12:03:33.095Z,48.50
2022-09-22T12:06:05.822Z,48.07
2022-09-22T12:08:37.756Z,48.10
2022-09-22T12:11:07.709Z,49.39
2022-09-22T12:13:37.042Z,48.34
2022-09-22T12:16:08.551Z,49.69
2022-09-22T12:18:39.096Z,49.08
2022-09-22T12:21:22.653Z,49.89
2022-09-22T12:23:51.488Z,47.34
2022-09-22T12:26:32.770Z,46.72
2022-09-22T12:29:01.950Z,47.99
2022-09-22T12:31:35.040Z,47.25
2022-09-22T12:34:04.393Z,46.22
2022-09-22T12:36:41.545Z,47.54
2022-09-22T12:39:24.225Z,46.83
2022-09-22T12:41:58.223Z,47.86
2022-09-22T12:44:29.631Z,47.60
2022-09-22T12:47:20.388Z,47.54
2022-09-22T12:49:53.555Z,47.57
2022-09-22T12:52:40.129Z,48.94
2022-09-22T12:55:19.057Z,49.90
2022-09-22T12:57:47.850Z,49.00
2022-09-22T13:00:33.370Z,47.98
2022-09-22T13:03:01.374Z,48.46
2022-09-22T13:05:27.725Z,46.78
2022-09-22T13:07:55.693Z,47.16
2022-09-22T13:10:25.021Z,46.91
2022-09-22T13:13:05.559Z,48.67
2022-09-22T13:15:56.850Z,48.33
2022-09-22T13:18:43.768Z,48.03
2022-09-22T13:21:13.154Z,46.20
2022-09-22T13:23:51.824Z,46.93
2022-09-22T13:26:40.501Z,47.99
2022-09-22T13:29:17.594Z,47.64
2022-09-22T13:31:54.233Z,48.62
2022-09-22T13:34:37.113Z,49.19
2022-09-22T13:37:19.137Z,49.24
2022-09-22T13:39:51.332Z,49.36
2022-09-22T13:42:24.735Z,48.91
2022-09-22T13:45:06.375Z,48.83
2022-09-22T13:47:35.005Z,49.67
2022-09-22T13:50:08.077Z,48.60
2022-09-22T13:52:38.519Z,48.25
2022-09-22T13:55:10.288Z,47.79
2022-09-22T13:57:37.917Z,48.13
2022-09-22T14:00:08.083Z,48.95
2022-09-22T14:02:34.868Z,47.57
2022-09-22T14:05:07.843Z,47.60
2022-09-22T14:07:49.442Z,48.06
2022-09-22T14:10:18.974Z,49.50
2022-09-22T14:12:46.461Z,47.29
2022-09-22T14:15:37.518Z,48.20
2022-09-22T14:18:15.740Z,48.40
2022-09-22T14:20:44.331Z,47.58
2022-09-22T14:23:28.546Z,47.94
2022-09-22T14:25:57.172Z,48.02
2022-09-22T14:28:27.755Z,47.19
2022-09-22T14:30:54.390Z,47.05
2022-09-22T14:33:25.339Z,47.60
2022-09-22T14:36:00.915Z,47.65
2022-09-22T14:38:30.167Z,47.35
2022-09-22T14:41:02.804Z,48.38
2022-09-22T14:43:41.857Z,48.40
2022-09-22T14:46:24.170Z,48.82
2022-09-22T14:48:50.995Z,48.35
2022-09-22T14:51:21.468Z,48.81
2022-09-22T14:53:51.533Z,48.80
2022-09-22T14:56:29.004Z,47.77
2022-09-22T14:58:59.002Z,48.74
2022-09-22T15:01:48.664Z,49.48
2022-09-22T15:04:26.573Z,48.07
2022-09-22T15:06:59.281Z,47.93
2022-09-22T15:09:31.256Z,48.47
2022-09-22T15:12:02.731Z,48.44
2022-09-22T15:14:36.812Z,48.98
2022-09-22T15:17:23.737Z,48.11
2022-09-22T15:19:56.991Z,48.76
2022-09-22T15:22:24.104Z,48.03
2022-09-22T15:24:51.304Z,48.25
2022-09-22T15:27:17.791Z,48.83
2022-09-22T15:29:45.211Z,48.01
2022-09-22T15:32:11.739Z,48.66
2022-09-22T15:34:43.525Z,47.95
2022-09-22T15:37:28.284Z,49.15
2022-09-22T15:39:54.698Z,49.65
2022-09-22T15:42:22.038Z,49.24
2022-09-22T15:44:52.229Z,48.93
2022-09-22T15:47:18.753Z,50.01
2022-09-22T15:49:45.221Z,50.59
2022-09-22T15:52:11.805Z,49.52
2022-09-22T15:54:38.227Z,51.67
2022-09-22T15:57:05.489Z,52.16
2022-09-22T15:59:33.376Z,52.89
2022-09-22T16:02:01.236Z,51.34
2022-09-22T16:04:34.065Z,50.84
2022-09-22T16:07:05.945Z,51.21
2022-09-22T16:09:32.390Z,52.27
2022-09-22T16:11:59.580Z,52.88
2022-09-22T16:14:25.965Z,50.82
2022-09-22T16:16:52.514Z,51.78
2022-09-22T16:19:19.010Z,51.07
2022-09-22T16:21:54.141Z,51.55
2022-09-22T16:24:22.518Z,51.83
2022-09-22T16:26:49.599Z,52.83
2022-09-22T16:29:16.471Z,52.71
2022-09-22T16:31:42.865Z,52.35
2022-09-22T16:34:10.667Z,52.71
2022-09-22T16:36:37.115Z,53.14
2022-09-22T16:39:04.384Z,53.91
2022-09-22T16:41:33.164Z,53.75
2022-09-22T16:44:01.385Z,53.41
2022-09-22T16:46:30.403Z,54.36
2022-09-22T16:49:03.922Z,55.14
2022-09-22T16:51:33.214Z,56.22
2022-09-22T16:53:59.980Z,56.24
2022-09-22T16:56:28.438Z,56.87
2022-09-22T16:58:55.435Z,57.17
2022-09-22T17:01:23.625Z,57.21
2022-09-22T17:03:52.155Z,57.91
2022-09-22T17:06:25.180Z,58.49
2022-09-22T17:08:53.452Z,59.18
2022-09-22T17:11:21.776Z,59.90
2022-09-22T17:13:50.674Z,60.60
2022-09-22T17:16:27.551Z,61.67
2022-09-22T17:18:56.663Z,62.93
2022-09-22T17:21:23.459Z,64.35
2022-09-22T17:23:52.088Z,65.21
2022-09-22T17:26:20.636Z,66.33
2022-09-22T17:28:47.622Z,67.47
2022-09-22T17:31:14.223Z,67.67
2022-09-22T17:33:46.969Z,67.68
2022-09-22T17:36:23.724Z,68.19
2022-09-22T17:38:52.976Z,69.30
2022-09-22T17:41:21.906Z,69.60
2022-09-22T17:43:55.717Z,69.55
2022-09-22T17:46:23.341Z,70.67
2022-09-22T17:49:08.570Z,71.18
2022-09-22T17:51:57.669Z,70.73
2022-09-22T17:54:46.895Z,72.05
2022-09-22T17:57:16.195Z,72.48
2022-09-22T17:59:42.616Z,73.03
2022-09-22T18:02:11.773Z,72.86
2022-09-22T18:04:38.834Z,73.55
2022-09-22T18:07:07.151Z,73.83
2022-09-22T18:09:34.535Z,73.66
2022-09-22T18:12:01.579Z,73.70
2022-09-22T18:14:30.703Z,74.18
2022-09-22T18:16:58.336Z,74.60
2022-09-22T18:19:34.568Z,74.87
2022-09-22T18:22:02.518Z,75.30
2022-09-22T18:24:29.001Z,74.98
2022-09-22T18:26:55.404Z,75.23
2022-09-22T18:29:22.049Z,75.87
2022-09-22T18:31:53.000Z,75.40
2022-09-22T18:34:19.463Z,74.81
2022-09-22T18:36:45.922Z,75.64
2022-09-22T18:39:12.867Z,75.55
2022-09-22T18:41:40.076Z,76.45
2022-09-22T18:44:09.039Z,77.06
2022-09-22T18:46:36.224Z,76.73
2022-09-22T18:49:05.963Z,76.33
2022-09-22T18:51:34.765Z,76.59
2022-09-22T18:54:07.973Z,77.83
2022-09-22T18:56:36.535Z,77.73
2022-09-22T18:59:04.270Z,78.15
2022-09-22T19:01:34.410Z,77.86
2022-09-22T19:04:07.937Z,78.17
2022-09-22T19:06:53.181Z,78.71
2022-09-22T19:09:20.460Z,79.02
2022-09-22T19:11:53.266Z,78.47
2022-09-22T19:14:20.980Z,78.63
2022-09-22T19:16:48.585Z,79.04
2022-09-22T19:19:16.307Z,78.71
2022-09-22T19:21:42.748Z,79.40
2022-09-22T19:24:10.426Z,79.40
2022-09-22T19:26:38.311Z,79.03
2022-09-22T19:29:05.978Z,79.15
2022-09-22T19:31:32.997Z,79.69
2022-09-22T19:34:01.960Z,79.57
2022-09-22T19:36:28.981Z,80.10
2022-09-22T19:38:55.760Z,80.16
2022-09-22T19:41:25.548Z,79.99
2022-09-22T19:43:55.475Z,80.97
2022-09-22T19:46:23.140Z,80.41
2022-09-22T19:48:50.039Z,80.43
2022-09-22T19:51:16.665Z,81.17
2022-09-22T19:53:43.108Z,80.81
2022-09-22T19:56:09.811Z,80.76
2022-09-22T19:58:36.226Z,81.20
2022-09-22T20:01:06.299Z,81.28
2022-09-22T20:03:32.711Z,81.52
2022-09-22T20:05:59.331Z,81.50
2022-09-22T20:08:27.041Z,82.04
2022-09-22T20:11:16.444Z,81.81
2022-09-22T20:14:11.403Z,82.51
2022-09-22T20:16:37.788Z,82.05
2022-09-22T20:19:04.209Z,82.29
2022-09-22T20:21:33.186Z,82.63
2022-09-22T20:23:59.572Z,82.69
2022-09-22T20:26:26.155Z,82.72
2022-09-22T20:28:53.328Z,82.46
2022-09-22T20:31:19.974Z,82.71
2022-09-22T20:33:46.430Z,82.75
2022-09-22T20:36:15.807Z,83.13
2022-09-22T20:38:42.333Z,83.60
2022-09-22T20:41:22.156Z,83.17
2022-09-22T20:43:49.796Z,83.33
2022-09-22T20:46:16.917Z,83.44
2022-09-22T20:48:45.181Z,83.42
2022-09-22T20:51:12.992Z,83.39
2022-09-22T20:53:40.008Z,83.59
2022-09-22T20:56:09.130Z,83.87
2022-09-22T20:58:40.550Z,84.12
2022-09-22T21:01:07.794Z,84.35
2022-09-22T21:03:35.236Z,83.99
2022-09-22T21:06:03.643Z,84.37
2022-09-22T21:08:48.848Z,84.10
2022-09-22T21:11:17.131Z,83.98
2022-09-22T21:13:43.999Z,84.69
2022-09-22T21:16:10.950Z,84.88
2022-09-22T21:18:38.393Z,85.47
2022-09-22T21:21:06.543Z,85.26
2022-09-22T21:23:33.264Z,85.92
2022-09-22T21:26:02.072Z,85.87
2022-09-22T21:28:29.780Z,86.32
2022-09-22T21:30:58.474Z,86.30
2022-09-22T21:33:26.985Z,85.59
2022-09-22T21:36:14.027Z,86.09
2022-09-22T21:38:48.701Z,85.92
2022-09-22T21:41:17.341Z,86.19
2022-09-22T21:43:44.604Z,85.96
2022-09-22T21:46:13.904Z,86.04
2022-09-22T21:48:40.929Z,86.14
2022-09-22T21:51:11.658Z,85.84
2022-09-22T21:53:39.390Z,86.31
2022-09-22T21:56:08.593Z,86.45
2022-09-22T21:58:36.951Z,86.72
2022-09-22T22:01:08.960Z,86.54
2022-09-22T22:03:36.692Z,87.33
2022-09-22T22:06:06.700Z,87.07
2022-09-22T22:08:37.230Z,86.69
2022-09-22T22:11:13.208Z,86.79
2022-09-22T22:13:42.140Z,86.86
2022-09-22T22:16:11.606Z,86.63
2022-09-22T22:18:39.181Z,86.84
2022-09-22T22:21:14.905Z,86.86
2022-09-22T22:23:43.729Z,86.83
2022-09-22T22:26:13.501Z,86.79
2022-09-22T22:28:41.600Z,86.90
2022-09-22T22:31:11.610Z,86.40
2022-09-22T22:33:41.632Z,86.62
2022-09-22T22:36:10.780Z,86.88
2022-09-22T22:38:38.636Z,86.72
2022-09-22T22:41:17.354Z,86.50
2022-09-22T22:43:45.007Z,87.00
2022-09-22T22:46:16.445Z,87.09
2022-09-22T22:48:43.798Z,87.01
2022-09-22T22:51:13.977Z,86.96
2022-09-22T22:53:41.118Z,87.28
2022-09-22T22:56:12.372Z,87.56
2022-09-22T22:58:39.108Z,87.59
2022-09-22T23:01:13.556Z,87.76
2022-09-22T23:03:42.714Z,88.01
2022-09-22T23:06:12.144Z,88.10
2022-09-22T23:08:39.544Z,87.75
2022-09-22T23:11:11.324Z,87.47
2022-09-22T23:13:40.135Z,86.88
2022-09-22T23:16:09.599Z,87.47
2022-09-22T23:18:37.960Z,87.79
2022-09-22T23:21:09.318Z,87.66
2022-09-22T23:23:37.556Z,87.86
2022-09-22T23:26:05.833Z,87.22
2022-09-22T23:28:33.995Z,87.88
2022-09-22T23:31:09.145Z,87.87
2022-09-22T23:33:37.212Z,87.76
2022-09-22T23:36:05.637Z,87.62
2022-09-22T23:38:33.632Z,87.82
2022-09-22T23:41:00.908Z,87.68
2022-09-22T23:43:28.744Z,87.73
2022-09-22T23:45:55.733Z,87.87
2022-09-22T23:48:23.828Z,88.06
2022-09-22T23:50:52.970Z,87.87
2022-09-22T23:53:22.633Z,87.82
2022-09-22T23:55:49.549Z,87.72
2022-09-22T23:58:16.360Z,88.01
